ENBN/BNN METAR and TAF weather

Enter ICAO airport designator
Station Type Date Time Source
ENBN METAR 2019/02/23 22:50 UTC NOAA

ENBN 232250Z 20015KT 9999 VCSH FEW010 BKN020 08/04 Q1020


Station Type Date Time Source
ENBN Decoded METAR 2019/02/23 22:50 UTC NOAA

Bronnoysund / Bronnoy, Norway (ENBN) 65-28N 012-13E 9M
Feb 23, 2019 - 05:50 PM EST / 2019.02.23 2250 UTC
Wind: from the SSW (200 degrees) at 17 MPH (15 KT):0
Visibility: greater than 7 mile(s):0
Sky conditions: mostly cloudy
Weather: showers in the vicinity
Temperature: 46 F (8 C)
Dew Point: 39 F (4 C)
Relative Humidity: 75%
Pressure (altimeter): 30.12 in. Hg (1020 hPa)
ob: ENBN 232250Z 20015KT 9999 VCSH FEW010 BKN020 08/04 Q1020
cycle: 23

Station Type Date Time Source
ENBN TAF 2011/03/27 18:12 UTC NOAA

TAF TAF ENBN 261700Z 2618/2718 CNL


Example: see airport list